^^
Peaceful Hills Weather Station Historical Data
 
Daily Summary for December 06, 2019 Units:  English    Metric   Both
Daily Weekly Monthly Yearly Custom
  Current: High: Low: Average:
Temperature: 65.5 °F 65.5 °F 52.5 °F 57.5 °F
Dew Point: 50.6 °F 52.2 °F 44.8 °F 48.7 °F
Humidity: 58.6% 84.2% 58.6% 73%
Wind Speed: 2.2mph 6.4mph 0mph 0.7mph
Wind Gust: 16mph 19mph - -
WindWNW - - WSW
Pressure: 30.12 in 30.13 in 29.97 in -
Precipitation: 0.00 in      
Historical Graphs
 
 
Tabular Data for December 06, 2019
Time Temperature Dew Point Pressure Wind Wind Speed Wind Gust Humidity Rainfall Rate (Hourly)
00:04 57.2 °F 44.9 °F 30.00 in Calm     63.6% 0.00 in
00:09 57.2 °F 45.6 °F 30.00 in Calm     65.2% 0.00 in
00:14 57.1 °F 45.2 °F 30.00 in Calm     64.4% 0.00 in
00:19 57.1 °F 45.3 °F 30.00 in Calm     64.8% 0.00 in
00:24 57.1 °F 45.4 °F 30.00 in Calm     65% 0.00 in
00:29 57.2 °F 44.9 °F 30.00 in Calm     63.6% 0.00 in
00:34 57.4 °F 45 °F 30.00 in Calm     63.2% 0.00 in
00:39 57.6 °F 45.1 °F 29.99 in Calm     63% 0.00 in
00:44 57.6 °F 45.1 °F 29.99 in Calm     63% 0.00 in
00:49 57.7 °F 45.2 °F 29.99 in Calm     63% 0.00 in
00:54 57.6 °F 45.1 °F 29.99 in Calm     63% 0.00 in
00:59 57.5 °F 45 °F 29.98 in Calm     63% 0.00 in
01:04 57.4 °F 45 °F 29.98 in Calm     63.2% 0.00 in
01:09 57.3 °F 44.8 °F 29.98 in Calm     63% 0.00 in
01:14 57.3 °F 44.8 °F 29.98 in Calm     63.2% 0.00 in
01:19 57.1 °F 45.2 °F 29.98 in Calm     64.4% 0.00 in
01:24 56.9 °F 44.8 °F 29.98 in Calm     64% 0.00 in
01:29 56.7 °F 45 °F 29.98 in Calm     64.8% 0.00 in
01:34 56.5 °F 45.2 °F 29.98 in Calm     65.8% 0.00 in
01:39 56.4 °F 45.2 °F 29.98 in Calm     66% 0.00 in
01:44 56.3 °F 45.1 °F 29.98 in Calm     66% 0.00 in
01:49 56.2 °F 45.4 °F 29.98 in Calm     67% 0.00 in
01:54 56 °F 45.3 °F 29.98 in Calm     67.2% 0.00 in
01:59 55.8 °F 46 °F 29.98 in Calm     69.4% 0.00 in
02:04 55.7 °F 45.6 °F 29.98 in Calm     68.8% 0.00 in
02:09 55.6 °F 45.7 °F 29.99 in Calm     69.4% 0.00 in
02:14 55.5 °F 46.6 °F 29.99 in Calm     72.2% 0.00 in
02:19 55.2 °F 46.6 °F 29.99 in Calm     72.8% 0.00 in
02:24 55 °F 46.1 °F 29.99 in Calm     72% 0.00 in
02:29 55 °F 46 °F 29.99 in Calm     71.8% 0.00 in
02:34 55.1 °F 45.9 °F 29.99 in Calm     71% 0.00 in
02:39 55.2 °F 45.9 °F 29.98 in Calm     70.8% 0.00 in
02:44 55.3 °F 47.3 °F 29.98 in Calm     74.4% 0.00 in
02:49 55 °F 47.2 °F 29.98 in Calm     74.8% 0.00 in
02:54 54.9 °F 47 °F 29.98 in Calm     74.8% 0.00 in
02:59 54.8 °F 47.9 °F 29.97 in Calm     77.4% 0.00 in
03:04 54.5 °F 48 °F 29.97 in Calm     78.6% 0.00 in
03:09 54.2 °F 47.4 °F 29.98 in Calm     77.8% 0.00 in
03:14 54.1 °F 47.2 °F 29.97 in Calm     77.4% 0.00 in
03:19 54.1 °F 48.1 °F 29.97 in Calm     80% 0.00 in
03:24 53.9 °F 47.5 °F 29.97 in Calm     78.8% 0.00 in
03:29 54.1 °F 47.5 °F 29.97 in Calm     78.2% 0.00 in
03:34 54.4 °F 47.7 °F 29.97 in Calm     77.8% 0.00 in
03:39 54.7 °F 47.6 °F 29.97 in Calm     77% 0.00 in
03:44 54.9 °F 47.8 °F 29.97 in Calm     77% 0.00 in
03:49 55 °F 48 °F 29.97 in Calm     77.4% 0.00 in
03:54 55 °F 48.1 °F 29.97 in Calm     77.4% 0.00 in
03:59 55.1 °F 48.5 °F 29.97 in Calm     78.2% 0.00 in
04:04 55.4 °F 48.4 °F 29.97 in Calm     77.4% 0.00 in
04:09 55.6 °F 48.5 °F 29.97 in Calm     77% 0.00 in
04:14 55.8 °F 48.7 °F 29.97 in Calm     77% 0.00 in
04:19 55.9 °F 48.8 °F 29.97 in Calm     77% 0.00 in
04:24 56 °F 48.9 °F 29.97 in Calm     77% 0.00 in
04:29 56 °F 48.9 °F 29.98 in Calm     77% 0.00 in
04:34 56 °F 49 °F 29.98 in Calm     77.2% 0.00 in
04:39 56 °F 49 °F 29.98 in Calm     77.2% 0.00 in
04:44 56 °F 49.2 °F 29.98 in Calm     78% 0.00 in
04:49 56 °F 49.2 °F 29.98 in Calm     78% 0.00 in
04:54 56 °F 49.3 °F 29.98 in Calm     78.2% 0.00 in
04:59 56 °F 49.3 °F 29.99 in Calm     78.2% 0.00 in
05:04 56 °F 49.2 °F 29.99 in Calm     78% 0.00 in
05:09 56 °F 49.2 °F 29.99 in Calm     78% 0.00 in
05:14 56 °F 49.6 °F 29.99 in Calm     79% 0.00 in
05:19 55.9 °F 50.2 °F 29.99 in Calm     80.8% 0.00 in
05:24 55.8 °F 50.1 °F 29.99 in Calm     81% 0.00 in
05:29 55.6 °F 49.9 °F 29.99 in Calm     80.8% 0.00 in
05:34 55.6 °F 49.7 °F 30.00 in Calm     80.6% 0.00 in
05:39 55.6 °F 49.9 °F 30.01 in Calm     81.2% 0.00 in
05:44 55.5 °F 49.8 °F 30.02 in Calm     81.2% 0.00 in
05:49 55.3 °F 49.9 °F 30.02 in Calm     82% 0.00 in
05:54 55.3 °F 49.9 °F 30.02 in Calm     82% 0.00 in
05:59 55.7 °F 50 °F 30.03 in North 0.4 mph 5 mph 81% 0.00 in
06:04 56 °F 50 °F 30.04 in NW 5 mph 10 mph 80.2% 0.00 in
06:09 56.4 °F 50 °F 30.04 in NW 3.6 mph 9 mph 79% 0.00 in
06:14 56.5 °F 49.9 °F 30.04 in NNW 1.2 mph 10 mph 78.4% 0.00 in
06:19 56.6 °F 49.5 °F 30.03 in North 0.4 mph 5 mph 77% 0.00 in
06:24 56.6 °F 49.5 °F 30.03 in Calm     77% 0.00 in
06:29 56.5 °F 49.6 °F 30.03 in Calm     77.6% 0.00 in
06:34 56.3 °F 49.9 °F 30.03 in Calm     78.8% 0.00 in
06:39 56.1 °F 49.7 °F 30.03 in Calm     79% 0.00 in
06:44 55.9 °F 49.5 °F 30.03 in Calm     79% 0.00 in
06:49 55.7 °F 49.4 °F 30.02 in Calm     79.4% 0.00 in
06:54 55.4 °F 49.3 °F 30.03 in Calm     80% 0.00 in
06:59 55 °F 49.3 °F 30.03 in Calm     80.8% 0.00 in
07:04 54.8 °F 48.9 °F 30.03 in Calm     80.6% 0.00 in
07:09 54.4 °F 48.7 °F 30.03 in Calm     81% 0.00 in
07:14 54 °F 48.6 °F 30.03 in Calm     82% 0.00 in
07:19 53.7 °F 48.6 °F 30.03 in Calm     82.8% 0.00 in
07:24 53.5 °F 48.5 °F 30.03 in Calm     83% 0.00 in
07:29 53.5 °F 48.5 °F 30.04 in Calm     83% 0.00 in
07:34 53.2 °F 48.4 °F 30.04 in Calm     83.6% 0.00 in
07:39 52.8 °F 48.1 °F 30.05 in Calm     84% 0.00 in
07:44 52.5 °F 47.8 °F 30.05 in Calm     84% 0.00 in
07:49 52.5 °F 47.8 °F 30.05 in Calm     84% 0.00 in
07:54 52.5 °F 47.9 °F 30.05 in Calm     84.2% 0.00 in
07:59 52.7 °F 48 °F 30.06 in Calm     84% 0.00 in
08:04 52.8 °F 48.1 °F 30.06 in Calm     84% 0.00 in
08:09 53.1 °F 48.3 °F 30.07 in Calm     83.8% 0.00 in
08:14 53.3 °F 48.3 °F 30.07 in Calm     83% 0.00 in
08:19 53.6 °F 48.6 °F 30.07 in Calm     83% 0.00 in
08:24 54 °F 48.9 °F 30.07 in Calm     82.8% 0.00 in
08:29 54.5 °F 49.2 °F 30.08 in Calm     82.2% 0.00 in
08:34 55.4 °F 49.1 °F 30.08 in Calm     79.6% 0.00 in
08:39 56.1 °F 49.5 °F 30.07 in Calm     78.6% 0.00 in
08:44 56.6 °F 49.7 °F 30.07 in SSE 0.8 mph 5 mph 77.6% 0.00 in
08:49 57 °F 49.9 °F 30.08 in SSE 0.8 mph 5 mph 77% 0.00 in
08:54 57.3 °F 49.8 °F 30.07 in SE 4.2 mph 9 mph 76% 0.00 in
08:59 57.5 °F 50.1 °F 30.08 in Calm   9 mph 76.4% 0.00 in
09:04 57.7 °F 50.1 °F 30.08 in ESE 1.8 mph 9 mph 75.6% 0.00 in
09:09 57.9 °F 50.2 °F 30.08 in East 1.4 mph 9 mph 75.6% 0.00 in
09:14 58.3 °F 50.4 °F 30.09 in East 1.6 mph 7 mph 75% 0.00 in
09:19 58.7 °F 50.6 °F 30.10 in Calm   2 mph 74.4% 0.00 in
09:24 59.1 °F 50.7 °F 30.10 in Calm   4 mph 73.8% 0.00 in
09:29 59.6 °F 50.8 °F 30.10 in Calm   4 mph 72.8% 0.00 in
09:34 60.2 °F 50.9 °F 30.11 in Calm     71.4% 0.00 in
09:39 60.3 °F 50.8 °F 30.11 in Calm     70.8% 0.00 in
09:44 60.5 °F 50.8 °F 30.12 in WNW 1 mph 5 mph 70.4% 0.00 in
09:49 60.7 °F 51 °F 30.12 in Calm   5 mph 70.2% 0.00 in
09:54 60.9 °F 51.1 °F 30.12 in Calm     70.2% 0.00 in
09:59 61.1 °F 51 °F 30.12 in NNW 1.4 mph 5 mph 69.6% 0.00 in
10:04 61.3 °F 51.1 °F 30.12 in Calm   5 mph 69.2% 0.00 in
10:09 61.5 °F 51.2 °F 30.12 in Calm     69% 0.00 in
10:14 62 °F 51.6 °F 30.12 in Calm     68.8% 0.00 in
10:19 62.3 °F 51.2 °F 30.12 in Calm     67% 0.00 in
10:24 62.4 °F 51.9 °F 30.11 in Calm     68.4% 0.00 in
10:29 62.7 °F 51.5 °F 30.11 in NE 2.4 mph 16 mph 66.6% 0.00 in
10:34 63 °F 51.3 °F 30.11 in WNW 3.6 mph 16 mph 65.6% 0.00 in
10:39 63.2 °F 51.4 °F 30.12 in NW 3.6 mph 9 mph 65.4% 0.00 in
10:44 63.5 °F 51.4 °F 30.12 in NNW 2.8 mph 9 mph 64.8% 0.00 in
10:49 63.8 °F 51.5 °F 30.12 in North 1.4 mph 9 mph 64.2% 0.00 in
10:54 64 °F 51.3 °F 30.13 in NNW 2.2 mph 10 mph 63.4% 0.00 in
10:59 64 °F 51.4 °F 30.13 in NNE 3.4 mph 10 mph 63.6% 0.00 in
11:04 64 °F 51.6 °F 30.13 in North 1.6 mph 10 mph 64% 0.00 in
11:09 64 °F 51.8 °F 30.13 in WNW 2.4 mph 12 mph 64.4% 0.00 in
11:14 64.1 °F 51.8 °F 30.13 in NNW 1.8 mph 12 mph 64.2% 0.00 in
11:19 64.2 °F 51.9 °F 30.13 in North 0.4 mph 9 mph 64.4% 0.00 in
11:24 64.1 °F 51.8 °F 30.13 in NNW 2 mph 9 mph 64.2% 0.00 in
11:29 64.4 °F 52.2 °F 30.13 in Calm   9 mph 64.6% 0.00 in
11:34 64.5 °F 51.5 °F 30.13 in NNW 6.4 mph 19 mph 62.6% 0.00 in
11:39 64.4 °F 50.9 °F 30.13 in North 4.8 mph 19 mph 61.4% 0.00 in
11:44 64.6 °F 51.2 °F 30.13 in North 4.6 mph 10 mph 61.8% 0.00 in
11:49 64.9 °F 51.2 °F 30.13 in NW 4.6 mph 10 mph 61% 0.00 in
11:54 65.1 °F 50.4 °F 30.13 in North 5.6 mph 16 mph 59% 0.00 in
11:59 64.8 °F 50.3 °F 30.13 in North 3.6 mph 16 mph 59.4% 0.00 in
12:04 64.7 °F 50.9 °F 30.13 in WNW 3.4 mph 14 mph 60.8% 0.00 in
12:09 65 °F 50.5 °F 30.13 in NNW 5.6 mph 16 mph 59.4% 0.00 in
12:14 65.2 °F 50.9 °F 30.13 in NNW 1.8 mph 12 mph 59.8% 0.00 in
12:19 65.2 °F 50.5 °F 30.13 in North 4.4 mph 12 mph 59% 0.00 in
12:24 65.3 °F 50.9 °F 30.13 in North 5.6 mph 10 mph 59.6% 0.00 in
12:29 65.5 °F 50.6 °F 30.12 in WNW 2.2 mph 16 mph 58.6% 0.00 in
Hot Springs, Arkansas, USA
Compliments of Weather Underground - 4 mb